sensor_id;sensor_type;location;lat;lon;timestamp;temperature;humidity
41756;DHT22;27435;48.480;9.258;2023-08-01T00:00:25;19.30;91.70
41756;DHT22;27435;48.480;9.258;2023-08-01T00:02:51;19.40;91.50
41756;DHT22;27435;48.480;9.258;2023-08-01T00:05:17;19.40;91.40
41756;DHT22;27435;48.480;9.258;2023-08-01T00:07:42;19.50;90.90
41756;DHT22;27435;48.480;9.258;2023-08-01T00:10:08;19.40;91.30
41756;DHT22;27435;48.480;9.258;2023-08-01T00:12:34;19.40;91.10
41756;DHT22;27435;48.480;9.258;2023-08-01T00:15:00;19.40;91.80
41756;DHT22;27435;48.480;9.258;2023-08-01T00:17:26;19.40;91.20
41756;DHT22;27435;48.480;9.258;2023-08-01T00:19:51;19.40;91.20
41756;DHT22;27435;48.480;9.258;2023-08-01T00:22:17;19.40;90.80
41756;DHT22;27435;48.480;9.258;2023-08-01T00:24:43;19.50;91.30
41756;DHT22;27435;48.480;9.258;2023-08-01T00:27:08;19.60;89.70
41756;DHT22;27435;48.480;9.258;2023-08-01T00:29:36;19.60;89.10
41756;DHT22;27435;48.480;9.258;2023-08-01T00:32:01;19.60;89.20
41756;DHT22;27435;48.480;9.258;2023-08-01T00:34:27;19.70;89.50
41756;DHT22;27435;48.480;9.258;2023-08-01T00:36:53;19.70;90.00
41756;DHT22;27435;48.480;9.258;2023-08-01T00:39:18;19.60;90.00
41756;DHT22;27435;48.480;9.258;2023-08-01T00:41:44;19.60;89.10
41756;DHT22;27435;48.480;9.258;2023-08-01T00:44:09;19.60;88.60
41756;DHT22;27435;48.480;9.258;2023-08-01T00:46:35;19.60;88.70
41756;DHT22;27435;48.480;9.258;2023-08-01T00:49:02;19.70;88.60
41756;DHT22;27435;48.480;9.258;2023-08-01T00:51:29;19.80;87.10
41756;DHT22;27435;48.480;9.258;2023-08-01T00:53:55;19.90;86.30
41756;DHT22;27435;48.480;9.258;2023-08-01T00:56:21;20.00;87.10
41756;DHT22;27435;48.480;9.258;2023-08-01T00:58:47;20.00;86.70
41756;DHT22;27435;48.480;9.258;2023-08-01T01:01:12;20.10;85.50
41756;DHT22;27435;48.480;9.258;2023-08-01T01:03:38;20.20;86.00
41756;DHT22;27435;48.480;9.258;2023-08-01T01:06:31;20.20;85.00
41756;DHT22;27435;48.480;9.258;2023-08-01T01:08:57;20.30;85.10
41756;DHT22;27435;48.480;9.258;2023-08-01T01:11:23;20.40;84.30
41756;DHT22;27435;48.480;9.258;2023-08-01T01:13:48;20.50;84.70
41756;DHT22;27435;48.480;9.258;2023-08-01T01:16:14;20.50;84.00
41756;DHT22;27435;48.480;9.258;2023-08-01T01:18:40;20.50;84.20
41756;DHT22;27435;48.480;9.258;2023-08-01T01:21:06;20.50;84.20
41756;DHT22;27435;48.480;9.258;2023-08-01T01:23:32;20.60;83.50
41756;DHT22;27435;48.480;9.258;2023-08-01T01:25:58;20.70;83.40
41756;DHT22;27435;48.480;9.258;2023-08-01T01:28:24;20.70;83.70
41756;DHT22;27435;48.480;9.258;2023-08-01T01:30:51;20.70;84.20
41756;DHT22;27435;48.480;9.258;2023-08-01T01:33:18;20.70;83.90
41756;DHT22;27435;48.480;9.258;2023-08-01T01:35:44;20.70;83.70
41756;DHT22;27435;48.480;9.258;2023-08-01T01:38:10;20.80;83.30
41756;DHT22;27435;48.480;9.258;2023-08-01T01:40:36;20.80;84.30
41756;DHT22;27435;48.480;9.258;2023-08-01T01:43:01;20.70;84.80
41756;DHT22;27435;48.480;9.258;2023-08-01T01:45:27;20.60;85.60
41756;DHT22;27435;48.480;9.258;2023-08-01T01:47:53;20.60;85.30
41756;DHT22;27435;48.480;9.258;2023-08-01T01:50:19;20.50;86.10
41756;DHT22;27435;48.480;9.258;2023-08-01T01:52:45;20.50;86.10
41756;DHT22;27435;48.480;9.258;2023-08-01T01:55:11;20.50;85.50
41756;DHT22;27435;48.480;9.258;2023-08-01T01:57:36;20.40;87.80
41756;DHT22;27435;48.480;9.258;2023-08-01T02:00:05;20.30;86.90
41756;DHT22;27435;48.480;9.258;2023-08-01T02:02:35;20.30;87.10
41756;DHT22;27435;48.480;9.258;2023-08-01T02:05:01;20.30;86.90
41756;DHT22;27435;48.480;9.258;2023-08-01T02:07:29;20.40;85.90
41756;DHT22;27435;48.480;9.258;2023-08-01T02:09:55;20.40;85.70
41756;DHT22;27435;48.480;9.258;2023-08-01T02:12:20;20.50;85.70
41756;DHT22;27435;48.480;9.258;2023-08-01T02:14:46;20.50;85.00
41756;DHT22;27435;48.480;9.258;2023-08-01T02:17:12;20.50;84.40
41756;DHT22;27435;48.480;9.258;2023-08-01T02:19:37;20.50;84.20
41756;DHT22;27435;48.480;9.258;2023-08-01T02:22:03;20.60;84.10
41756;DHT22;27435;48.480;9.258;2023-08-01T02:24:30;20.60;84.30
41756;DHT22;27435;48.480;9.258;2023-08-01T02:26:56;20.60;84.80
41756;DHT22;27435;48.480;9.258;2023-08-01T02:29:21;20.60;84.90
41756;DHT22;27435;48.480;9.258;2023-08-01T02:31:47;20.60;85.10
41756;DHT22;27435;48.480;9.258;2023-08-01T02:34:12;20.60;85.30
41756;DHT22;27435;48.480;9.258;2023-08-01T02:36:38;20.60;85.50
41756;DHT22;27435;48.480;9.258;2023-08-01T02:39:06;20.60;85.80
41756;DHT22;27435;48.480;9.258;2023-08-01T02:41:32;20.50;85.50
41756;DHT22;27435;48.480;9.258;2023-08-01T02:43:57;20.50;85.90
41756;DHT22;27435;48.480;9.258;2023-08-01T02:46:23;20.50;85.90
41756;DHT22;27435;48.480;9.258;2023-08-01T02:48:49;20.50;86.40
41756;DHT22;27435;48.480;9.258;2023-08-01T02:51:15;20.50;85.70
41756;DHT22;27435;48.480;9.258;2023-08-01T02:53:40;20.50;85.90
41756;DHT22;27435;48.480;9.258;2023-08-01T02:56:07;20.50;85.60
41756;DHT22;27435;48.480;9.258;2023-08-01T02:58:35;20.50;85.80
41756;DHT22;27435;48.480;9.258;2023-08-01T03:01:01;20.40;85.10
41756;DHT22;27435;48.480;9.258;2023-08-01T03:03:26;20.50;84.90
41756;DHT22;27435;48.480;9.258;2023-08-01T03:05:52;20.50;84.60
41756;DHT22;27435;48.480;9.258;2023-08-01T03:08:18;20.50;84.10
41756;DHT22;27435;48.480;9.258;2023-08-01T03:10:45;20.50;83.80
41756;DHT22;27435;48.480;9.258;2023-08-01T03:13:10;20.60;83.40
41756;DHT22;27435;48.480;9.258;2023-08-01T03:15:37;20.60;83.20
41756;DHT22;27435;48.480;9.258;2023-08-01T03:18:02;20.60;83.50
41756;DHT22;27435;48.480;9.258;2023-08-01T03:20:29;20.60;84.00
41756;DHT22;27435;48.480;9.258;2023-08-01T03:22:54;20.50;84.00
41756;DHT22;27435;48.480;9.258;2023-08-01T03:25:20;20.50;84.10
41756;DHT22;27435;48.480;9.258;2023-08-01T03:27:46;20.50;84.10
41756;DHT22;27435;48.480;9.258;2023-08-01T03:30:11;20.40;84.30
41756;DHT22;27435;48.480;9.258;2023-08-01T03:32:37;20.40;84.30
41756;DHT22;27435;48.480;9.258;2023-08-01T03:35:06;20.40;84.60
41756;DHT22;27435;48.480;9.258;2023-08-01T03:37:32;20.40;84.40
41756;DHT22;27435;48.480;9.258;2023-08-01T03:39:58;20.40;84.50
41756;DHT22;27435;48.480;9.258;2023-08-01T03:42:23;20.40;84.50
41756;DHT22;27435;48.480;9.258;2023-08-01T03:44:49;20.40;84.40
41756;DHT22;27435;48.480;9.258;2023-08-01T03:47:14;20.40;84.70
41756;DHT22;27435;48.480;9.258;2023-08-01T03:49:40;20.40;84.70
41756;DHT22;27435;48.480;9.258;2023-08-01T03:52:06;20.30;84.60
41756;DHT22;27435;48.480;9.258;2023-08-01T03:54:32;20.30;85.00
41756;DHT22;27435;48.480;9.258;2023-08-01T03:56:57;20.30;84.90
41756;DHT22;27435;48.480;9.258;2023-08-01T03:59:23;20.30;84.90
41756;DHT22;27435;48.480;9.258;2023-08-01T04:01:49;20.30;84.60
41756;DHT22;27435;48.480;9.258;2023-08-01T04:04:15;20.30;84.80
41756;DHT22;27435;48.480;9.258;2023-08-01T04:06:42;20.30;85.10
41756;DHT22;27435;48.480;9.258;2023-08-01T04:09:07;20.30;84.80
41756;DHT22;27435;48.480;9.258;2023-08-01T04:11:33;20.20;84.90
41756;DHT22;27435;48.480;9.258;2023-08-01T04:13:59;20.20;84.60
41756;DHT22;27435;48.480;9.258;2023-08-01T04:16:24;20.30;84.90
41756;DHT22;27435;48.480;9.258;2023-08-01T04:18:50;20.30;84.60
41756;DHT22;27435;48.480;9.258;2023-08-01T04:21:16;20.20;84.70
41756;DHT22;27435;48.480;9.258;2023-08-01T04:23:41;20.20;84.70
41756;DHT22;27435;48.480;9.258;2023-08-01T04:26:07;20.20;85.10
41756;DHT22;27435;48.480;9.258;2023-08-01T04:28:34;20.10;85.40
41756;DHT22;27435;48.480;9.258;2023-08-01T04:31:00;20.10;85.70
41756;DHT22;27435;48.480;9.258;2023-08-01T04:33:25;20.00;85.80
41756;DHT22;27435;48.480;9.258;2023-08-01T04:35:51;20.00;86.00
41756;DHT22;27435;48.480;9.258;2023-08-01T04:38:17;20.00;86.50
41756;DHT22;27435;48.480;9.258;2023-08-01T04:40:42;20.00;85.50
41756;DHT22;27435;48.480;9.258;2023-08-01T04:43:09;20.00;85.60
41756;DHT22;27435;48.480;9.258;2023-08-01T04:45:35;20.00;85.50
41756;DHT22;27435;48.480;9.258;2023-08-01T04:48:01;20.00;85.40
41756;DHT22;27435;48.480;9.258;2023-08-01T04:50:26;20.00;85.50
41756;DHT22;27435;48.480;9.258;2023-08-01T04:52:52;20.10;85.10
41756;DHT22;27435;48.480;9.258;2023-08-01T04:55:17;20.00;84.80
41756;DHT22;27435;48.480;9.258;2023-08-01T04:57:43;20.00;83.90
41756;DHT22;27435;48.480;9.258;2023-08-01T05:00:11;20.00;84.70
41756;DHT22;27435;48.480;9.258;2023-08-01T05:02:37;19.90;82.70
41756;DHT22;27435;48.480;9.258;2023-08-01T05:05:03;19.90;83.10
41756;DHT22;27435;48.480;9.258;2023-08-01T05:07:44;19.90;82.90
41756;DHT22;27435;48.480;9.258;2023-08-01T05:10:10;19.90;82.40
41756;DHT22;27435;48.480;9.258;2023-08-01T05:12:37;19.90;82.50
41756;DHT22;27435;48.480;9.258;2023-08-01T05:15:03;19.90;82.70
41756;DHT22;27435;48.480;9.258;2023-08-01T05:17:30;19.90;81.30
41756;DHT22;27435;48.480;9.258;2023-08-01T05:19:57;19.90;80.70
41756;DHT22;27435;48.480;9.258;2023-08-01T05:22:22;20.00;81.00
41756;DHT22;27435;48.480;9.258;2023-08-01T05:24:48;20.10;80.10
41756;DHT22;27435;48.480;9.258;2023-08-01T05:27:13;20.10;79.80
41756;DHT22;27435;48.480;9.258;2023-08-01T05:29:39;20.20;79.50
41756;DHT22;27435;48.480;9.258;2023-08-01T05:32:05;20.30;79.00
41756;DHT22;27435;48.480;9.258;2023-08-01T05:34:32;20.30;78.00
41756;DHT22;27435;48.480;9.258;2023-08-01T05:36:59;20.30;77.60
41756;DHT22;27435;48.480;9.258;2023-08-01T05:39:25;20.40;78.10
41756;DHT22;27435;48.480;9.258;2023-08-01T05:41:52;20.40;77.70
41756;DHT22;27435;48.480;9.258;2023-08-01T05:44:18;20.40;77.00
41756;DHT22;27435;48.480;9.258;2023-08-01T05:46:44;20.50;76.20
41756;DHT22;27435;48.480;9.258;2023-08-01T05:49:10;20.60;76.30
41756;DHT22;27435;48.480;9.258;2023-08-01T05:51:35;20.60;74.50
41756;DHT22;27435;48.480;9.258;2023-08-01T05:54:01;20.70;73.90
41756;DHT22;27435;48.480;9.258;2023-08-01T05:56:27;20.70;74.80
41756;DHT22;27435;48.480;9.258;2023-08-01T05:58:52;20.70;73.30
41756;DHT22;27435;48.480;9.258;2023-08-01T06:01:18;20.80;73.60
41756;DHT22;27435;48.480;9.258;2023-08-01T06:03:45;20.90;73.10
41756;DHT22;27435;48.480;9.258;2023-08-01T06:06:10;21.00;73.00
41756;DHT22;27435;48.480;9.258;2023-08-01T06:08:36;21.10;72.80
41756;DHT22;27435;48.480;9.258;2023-08-01T06:11:01;21.10;73.00
41756;DHT22;27435;48.480;9.258;2023-08-01T06:13:27;21.00;72.60
41756;DHT22;27435;48.480;9.258;2023-08-01T06:15:53;21.00;73.40
41756;DHT22;27435;48.480;9.258;2023-08-01T06:18:18;20.90;73.90
41756;DHT22;27435;48.480;9.258;2023-08-01T06:20:44;20.90;74.20
41756;DHT22;27435;48.480;9.258;2023-08-01T06:23:10;20.90;74.80
41756;DHT22;27435;48.480;9.258;2023-08-01T06:25:36;20.90;75.10
41756;DHT22;27435;48.480;9.258;2023-08-01T06:28:02;20.90;75.50
41756;DHT22;27435;48.480;9.258;2023-08-01T06:30:28;20.70;77.10
41756;DHT22;27435;48.480;9.258;2023-08-01T06:32:53;20.50;77.60
41756;DHT22;27435;48.480;9.258;2023-08-01T06:35:19;20.40;78.60
41756;DHT22;27435;48.480;9.258;2023-08-01T06:37:46;20.30;78.80
41756;DHT22;27435;48.480;9.258;2023-08-01T06:40:12;20.30;79.10
41756;DHT22;27435;48.480;9.258;2023-08-01T06:42:37;20.20;79.30
41756;DHT22;27435;48.480;9.258;2023-08-01T06:45:04;20.20;79.70
41756;DHT22;27435;48.480;9.258;2023-08-01T06:47:30;20.10;79.70
41756;DHT22;27435;48.480;9.258;2023-08-01T06:49:59;20.10;80.30
41756;DHT22;27435;48.480;9.258;2023-08-01T06:52:28;20.10;80.20
41756;DHT22;27435;48.480;9.258;2023-08-01T06:54:55;20.10;80.40
41756;DHT22;27435;48.480;9.258;2023-08-01T06:57:20;20.00;79.60
41756;DHT22;27435;48.480;9.258;2023-08-01T06:59:46;20.10;80.00
41756;DHT22;27435;48.480;9.258;2023-08-01T07:02:12;20.20;79.20
41756;DHT22;27435;48.480;9.258;2023-08-01T07:04:37;20.20;78.10
41756;DHT22;27435;48.480;9.258;2023-08-01T07:07:04;20.20;78.10
41756;DHT22;27435;48.480;9.258;2023-08-01T07:09:29;20.20;78.00
41756;DHT22;27435;48.480;9.258;2023-08-01T07:11:55;20.10;78.50
41756;DHT22;27435;48.480;9.258;2023-08-01T07:14:20;20.10;78.90
41756;DHT22;27435;48.480;9.258;2023-08-01T07:16:46;20.00;79.90
41756;DHT22;27435;48.480;9.258;2023-08-01T07:19:12;20.10;80.40
41756;DHT22;27435;48.480;9.258;2023-08-01T07:21:38;20.00;81.30
41756;DHT22;27435;48.480;9.258;2023-08-01T07:24:08;20.00;81.50
41756;DHT22;27435;48.480;9.258;2023-08-01T07:26:34;19.90;82.40
41756;DHT22;27435;48.480;9.258;2023-08-01T07:29:00;19.90;82.70
41756;DHT22;27435;48.480;9.258;2023-08-01T07:31:25;19.90;83.00
41756;DHT22;27435;48.480;9.258;2023-08-01T07:33:53;19.80;83.50
41756;DHT22;27435;48.480;9.258;2023-08-01T07:36:19;20.00;83.50
41756;DHT22;27435;48.480;9.258;2023-08-01T07:38:47;20.30;83.00
41756;DHT22;27435;48.480;9.258;2023-08-01T07:41:12;20.40;81.90
41756;DHT22;27435;48.480;9.258;2023-08-01T07:43:39;20.30;82.50
41756;DHT22;27435;48.480;9.258;2023-08-01T07:46:05;20.30;83.40
41756;DHT22;27435;48.480;9.258;2023-08-01T07:48:30;20.50;82.50
41756;DHT22;27435;48.480;9.258;2023-08-01T07:51:00;20.60;82.40
41756;DHT22;27435;48.480;9.258;2023-08-01T07:53:27;20.70;82.00
41756;DHT22;27435;48.480;9.258;2023-08-01T07:55:53;20.80;82.10
41756;DHT22;27435;48.480;9.258;2023-08-01T07:58:20;20.90;82.00
41756;DHT22;27435;48.480;9.258;2023-08-01T08:00:46;20.70;82.10
41756;DHT22;27435;48.480;9.258;2023-08-01T08:03:12;20.30;84.40
41756;DHT22;27435;48.480;9.258;2023-08-01T08:05:38;20.10;85.30
41756;DHT22;27435;48.480;9.258;2023-08-01T08:08:05;19.90;86.00
41756;DHT22;27435;48.480;9.258;2023-08-01T08:10:31;19.80;86.90
41756;DHT22;27435;48.480;9.258;2023-08-01T08:12:58;19.90;87.20
41756;DHT22;27435;48.480;9.258;2023-08-01T08:15:23;19.90;87.40
41756;DHT22;27435;48.480;9.258;2023-08-01T08:17:50;19.80;87.90
41756;DHT22;27435;48.480;9.258;2023-08-01T08:20:16;19.60;90.60
41756;DHT22;27435;48.480;9.258;2023-08-01T08:22:42;19.40;93.50
41756;DHT22;27435;48.480;9.258;2023-08-01T08:25:07;19.30;95.80
41756;DHT22;27435;48.480;9.258;2023-08-01T08:27:33;18.90;96.90
41756;DHT22;27435;48.480;9.258;2023-08-01T08:29:59;18.60;99.00
41756;DHT22;27435;48.480;9.258;2023-08-01T08:32:25;18.30;99.00
41756;DHT22;27435;48.480;9.258;2023-08-01T08:34:50;18.00;99.00
41756;DHT22;27435;48.480;9.258;2023-08-01T08:37:16;18.00;99.00
41756;DHT22;27435;48.480;9.258;2023-08-01T08:39:41;18.00;99.00
41756;DHT22;27435;48.480;9.258;2023-08-01T08:42:07;18.10;99.00
41756;DHT22;27435;48.480;9.258;2023-08-01T08:44:35;18.10;99.00
41756;DHT22;27435;48.480;9.258;2023-08-01T08:47:05;18.00;99.00
41756;DHT22;27435;48.480;9.258;2023-08-01T08:49:32;18.00;99.00
41756;DHT22;27435;48.480;9.258;2023-08-01T08:51:58;17.90;99.00
41756;DHT22;27435;48.480;9.258;2023-08-01T08:54:24;17.90;99.00
41756;DHT22;27435;48.480;9.258;2023-08-01T08:56:50;17.80;99.00
41756;DHT22;27435;48.480;9.258;2023-08-01T08:59:16;17.80;99.00
41756;DHT22;27435;48.480;9.258;2023-08-01T09:01:42;17.80;99.00
41756;DHT22;27435;48.480;9.258;2023-08-01T09:04:08;17.90;99.00
41756;DHT22;27435;48.480;9.258;2023-08-01T09:06:51;17.90;99.00
41756;DHT22;27435;48.480;9.258;2023-08-01T09:09:20;17.90;99.00
41756;DHT22;27435;48.480;9.258;2023-08-01T09:11:52;17.80;99.00
41756;DHT22;27435;48.480;9.258;2023-08-01T09:14:19;17.80;99.00
41756;DHT22;27435;48.480;9.258;2023-08-01T09:16:45;17.80;99.00
41756;DHT22;27435;48.480;9.258;2023-08-01T09:19:19;17.90;99.00
41756;DHT22;27435;48.480;9.258;2023-08-01T09:21:46;18.10;99.00
41756;DHT22;27435;48.480;9.258;2023-08-01T09:24:16;18.20;99.00
41756;DHT22;27435;48.480;9.258;2023-08-01T09:26:42;18.30;99.00
41756;DHT22;27435;48.480;9.258;2023-08-01T09:29:08;18.50;99.00
41756;DHT22;27435;48.480;9.258;2023-08-01T09:31:39;18.60;99.00
41756;DHT22;27435;48.480;9.258;2023-08-01T09:34:17;19.00;99.00
41756;DHT22;27435;48.480;9.258;2023-08-01T09:36:43;19.20;99.00
41756;DHT22;27435;48.480;9.258;2023-08-01T09:39:08;19.60;99.00
41756;DHT22;27435;48.480;9.258;2023-08-01T09:41:34;19.70;99.00
41756;DHT22;27435;48.480;9.258;2023-08-01T09:44:00;19.80;99.00
41756;DHT22;27435;48.480;9.258;2023-08-01T09:46:25;19.70;99.00
41756;DHT22;27435;48.480;9.258;2023-08-01T09:48:51;19.60;99.00
41756;DHT22;27435;48.480;9.258;2023-08-01T09:51:18;19.70;99.00
41756;DHT22;27435;48.480;9.258;2023-08-01T09:53:55;19.50;99.00
41756;DHT22;27435;48.480;9.258;2023-08-01T09:56:23;19.70;99.00
41756;DHT22;27435;48.480;9.258;2023-08-01T09:58:50;19.90;99.00
41756;DHT22;27435;48.480;9.258;2023-08-01T10:01:19;19.80;99.00
41756;DHT22;27435;48.480;9.258;2023-08-01T10:03:50;19.80;99.00
41756;DHT22;27435;48.480;9.258;2023-08-01T10:06:22;19.70;99.00
41756;DHT22;27435;48.480;9.258;2023-08-01T10:08:49;19.80;99.00
41756;DHT22;27435;48.480;9.258;2023-08-01T10:11:21;19.70;99.00
41756;DHT22;27435;48.480;9.258;2023-08-01T10:13:47;19.40;99.00
41756;DHT22;27435;48.480;9.258;2023-08-01T10:16:14;19.10;99.00
41756;DHT22;27435;48.480;9.258;2023-08-01T10:18:40;18.60;99.00
41756;DHT22;27435;48.480;9.258;2023-08-01T10:21:07;18.50;99.00
41756;DHT22;27435;48.480;9.258;2023-08-01T10:23:34;18.40;99.00
41756;DHT22;27435;48.480;9.258;2023-08-01T10:26:03;18.10;99.00
41756;DHT22;27435;48.480;9.258;2023-08-01T10:31:52;16.90;99.00
41756;DHT22;27435;48.480;9.258;2023-08-01T10:34:19;16.80;99.00
41756;DHT22;27435;48.480;9.258;2023-08-01T10:36:54;16.90;99.00
41756;DHT22;27435;48.480;9.258;2023-08-01T10:39:22;17.00;99.00
41756;DHT22;27435;48.480;9.258;2023-08-01T10:41:59;17.20;99.00
41756;DHT22;27435;48.480;9.258;2023-08-01T10:44:25;17.30;99.00
41756;DHT22;27435;48.480;9.258;2023-08-01T10:46:56;17.50;99.00
41756;DHT22;27435;48.480;9.258;2023-08-01T10:49:38;17.60;99.00
41756;DHT22;27435;48.480;9.258;2023-08-01T10:52:16;17.90;99.00
41756;DHT22;27435;48.480;9.258;2023-08-01T10:54:43;18.30;99.00
41756;DHT22;27435;48.480;9.258;2023-08-01T10:57:24;18.70;99.00
41756;DHT22;27435;48.480;9.258;2023-08-01T10:59:50;19.10;99.00
41756;DHT22;27435;48.480;9.258;2023-08-01T11:02:29;19.30;99.00
41756;DHT22;27435;48.480;9.258;2023-08-01T11:05:05;19.30;99.00
41756;DHT22;27435;48.480;9.258;2023-08-01T11:07:32;19.50;99.00
41756;DHT22;27435;48.480;9.258;2023-08-01T11:10:10;19.70;99.00
41756;DHT22;27435;48.480;9.258;2023-08-01T11:12:38;19.90;99.00
41756;DHT22;27435;48.480;9.258;2023-08-01T11:15:09;20.20;99.00
41756;DHT22;27435;48.480;9.258;2023-08-01T11:17:55;20.80;99.00
41756;DHT22;27435;48.480;9.258;2023-08-01T11:20:23;21.20;99.00
41756;DHT22;27435;48.480;9.258;2023-08-01T11:25:43;21.40;99.00
41756;DHT22;27435;48.480;9.258;2023-08-01T11:28:17;21.10;99.00
41756;DHT22;27435;48.480;9.258;2023-08-01T11:30:53;20.60;99.00
41756;DHT22;27435;48.480;9.258;2023-08-01T11:33:24;20.00;99.00
41756;DHT22;27435;48.480;9.258;2023-08-01T11:35:54;19.60;99.00
41756;DHT22;27435;48.480;9.258;2023-08-01T11:38:32;19.80;99.00
41756;DHT22;27435;48.480;9.258;2023-08-01T11:41:09;20.30;99.00
41756;DHT22;27435;48.480;9.258;2023-08-01T11:43:44;21.10;99.00
41756;DHT22;27435;48.480;9.258;2023-08-01T11:46:11;21.50;99.00
41756;DHT22;27435;48.480;9.258;2023-08-01T11:48:48;21.70;98.60
41756;DHT22;27435;48.480;9.258;2023-08-01T11:51:16;22.10;95.50
41756;DHT22;27435;48.480;9.258;2023-08-01T11:53:44;22.00;94.90
41756;DHT22;27435;48.480;9.258;2023-08-01T11:56:23;22.20;95.70
41756;DHT22;27435;48.480;9.258;2023-08-01T11:58:52;22.20;94.70
41756;DHT22;27435;48.480;9.258;2023-08-01T12:01:23;22.30;94.90
41756;DHT22;27435;48.480;9.258;2023-08-01T12:03:52;22.30;94.60
41756;DHT22;27435;48.480;9.258;2023-08-01T12:06:23;21.80;96.30
41756;DHT22;27435;48.480;9.258;2023-08-01T12:08:51;21.60;97.00
41756;DHT22;27435;48.480;9.258;2023-08-01T12:11:27;21.80;95.80
41756;DHT22;27435;48.480;9.258;2023-08-01T12:14:08;22.00;94.40
41756;DHT22;27435;48.480;9.258;2023-08-01T12:16:38;22.20;93.10
41756;DHT22;27435;48.480;9.258;2023-08-01T12:19:04;22.10;92.80
41756;DHT22;27435;48.480;9.258;2023-08-01T12:21:31;22.30;93.60
41756;DHT22;27435;48.480;9.258;2023-08-01T12:23:57;22.60;92.10
41756;DHT22;27435;48.480;9.258;2023-08-01T12:26:23;22.70;86.70
41756;DHT22;27435;48.480;9.258;2023-08-01T12:28:49;22.30;88.30
41756;DHT22;27435;48.480;9.258;2023-08-01T12:31:16;22.10;88.30
41756;DHT22;27435;48.480;9.258;2023-08-01T12:33:45;22.20;88.80
41756;DHT22;27435;48.480;9.258;2023-08-01T12:36:11;22.30;87.40
41756;DHT22;27435;48.480;9.258;2023-08-01T12:38:37;22.10;84.70
41756;DHT22;27435;48.480;9.258;2023-08-01T12:41:06;21.80;85.40
41756;DHT22;27435;48.480;9.258;2023-08-01T12:43:35;21.30;86.50
41756;DHT22;27435;48.480;9.258;2023-08-01T12:46:01;21.00;88.20
41756;DHT22;27435;48.480;9.258;2023-08-01T12:48:27;21.10;88.00
41756;DHT22;27435;48.480;9.258;2023-08-01T12:50:53;21.10;88.10
41756;DHT22;27435;48.480;9.258;2023-08-01T12:53:22;21.10;88.10
41756;DHT22;27435;48.480;9.258;2023-08-01T12:55:49;21.10;88.40
41756;DHT22;27435;48.480;9.258;2023-08-01T12:58:16;20.90;87.50
41756;DHT22;27435;48.480;9.258;2023-08-01T13:00:43;20.80;87.70
41756;DHT22;27435;48.480;9.258;2023-08-01T13:03:09;20.90;88.00
41756;DHT22;27435;48.480;9.258;2023-08-01T13:05:37;21.20;86.40
41756;DHT22;27435;48.480;9.258;2023-08-01T13:08:05;20.90;85.90
41756;DHT22;27435;48.480;9.258;2023-08-01T13:10:32;20.80;86.30
41756;DHT22;27435;48.480;9.258;2023-08-01T13:13:01;20.70;86.80
41756;DHT22;27435;48.480;9.258;2023-08-01T13:15:27;20.90;86.30
41756;DHT22;27435;48.480;9.258;2023-08-01T13:17:56;21.00;86.20
41756;DHT22;27435;48.480;9.258;2023-08-01T13:20:22;20.90;86.50
41756;DHT22;27435;48.480;9.258;2023-08-01T13:22:51;20.70;87.70
41756;DHT22;27435;48.480;9.258;2023-08-01T13:25:17;20.70;87.80
41756;DHT22;27435;48.480;9.258;2023-08-01T13:27:43;21.30;86.10
41756;DHT22;27435;48.480;9.258;2023-08-01T13:30:09;21.90;84.60
41756;DHT22;27435;48.480;9.258;2023-08-01T13:32:35;22.50;81.20
41756;DHT22;27435;48.480;9.258;2023-08-01T13:35:01;23.00;79.00
41756;DHT22;27435;48.480;9.258;2023-08-01T13:37:27;23.10;77.80
41756;DHT22;27435;48.480;9.258;2023-08-01T13:39:56;23.30;76.30
41756;DHT22;27435;48.480;9.258;2023-08-01T13:42:21;23.30;75.60
41756;DHT22;27435;48.480;9.258;2023-08-01T13:44:47;23.10;74.90
41756;DHT22;27435;48.480;9.258;2023-08-01T13:47:13;23.40;74.40
41756;DHT22;27435;48.480;9.258;2023-08-01T13:49:38;23.20;74.30
41756;DHT22;27435;48.480;9.258;2023-08-01T13:52:04;23.00;75.00
41756;DHT22;27435;48.480;9.258;2023-08-01T13:54:30;23.40;73.10
41756;DHT22;27435;48.480;9.258;2023-08-01T13:56:56;23.40;70.90
41756;DHT22;27435;48.480;9.258;2023-08-01T13:59:22;23.10;71.70
41756;DHT22;27435;48.480;9.258;2023-08-01T14:01:48;22.70;73.30
41756;DHT22;27435;48.480;9.258;2023-08-01T14:04:14;22.50;73.50
41756;DHT22;27435;48.480;9.258;2023-08-01T14:06:40;22.70;74.20
41756;DHT22;27435;48.480;9.258;2023-08-01T14:09:07;23.30;71.90
41756;DHT22;27435;48.480;9.258;2023-08-01T14:11:34;23.70;71.20
41756;DHT22;27435;48.480;9.258;2023-08-01T14:14:00;24.10;69.80
41756;DHT22;27435;48.480;9.258;2023-08-01T14:16:26;24.20;69.50
41756;DHT22;27435;48.480;9.258;2023-08-01T14:18:52;24.20;69.40
41756;DHT22;27435;48.480;9.258;2023-08-01T14:21:17;24.60;67.80
41756;DHT22;27435;48.480;9.258;2023-08-01T14:23:43;24.50;68.00
41756;DHT22;27435;48.480;9.258;2023-08-01T14:26:09;24.20;69.30
41756;DHT22;27435;48.480;9.258;2023-08-01T14:28:34;24.00;69.70
41756;DHT22;27435;48.480;9.258;2023-08-01T14:31:01;23.70;70.00
41756;DHT22;27435;48.480;9.258;2023-08-01T14:33:27;23.70;70.10
41756;DHT22;27435;48.480;9.258;2023-08-01T14:35:53;23.50;70.60
41756;DHT22;27435;48.480;9.258;2023-08-01T14:38:19;23.30;70.60
41756;DHT22;27435;48.480;9.258;2023-08-01T14:40:45;23.20;69.60
41756;DHT22;27435;48.480;9.258;2023-08-01T14:43:10;23.60;67.40
41756;DHT22;27435;48.480;9.258;2023-08-01T14:45:42;24.40;65.50
41756;DHT22;27435;48.480;9.258;2023-08-01T14:48:08;24.90;65.80
41756;DHT22;27435;48.480;9.258;2023-08-01T14:50:34;25.30;64.60
41756;DHT22;27435;48.480;9.258;2023-08-01T14:53:03;25.30;63.90
41756;DHT22;27435;48.480;9.258;2023-08-01T14:55:29;24.90;65.10
41756;DHT22;27435;48.480;9.258;2023-08-01T14:57:55;24.20;65.70
41756;DHT22;27435;48.480;9.258;2023-08-01T15:00:21;23.50;67.70
41756;DHT22;27435;48.480;9.258;2023-08-01T15:02:47;23.50;69.40
41756;DHT22;27435;48.480;9.258;2023-08-01T15:05:14;23.80;68.30
41756;DHT22;27435;48.480;9.258;2023-08-01T15:07:40;23.40;68.40
41756;DHT22;27435;48.480;9.258;2023-08-01T15:10:05;23.10;68.80
41756;DHT22;27435;48.480;9.258;2023-08-01T15:12:31;22.80;69.70
41756;DHT22;27435;48.480;9.258;2023-08-01T15:14:57;22.90;70.40
41756;DHT22;27435;48.480;9.258;2023-08-01T15:17:23;23.40;69.50
41756;DHT22;27435;48.480;9.258;2023-08-01T15:19:49;23.30;67.80
41756;DHT22;27435;48.480;9.258;2023-08-01T15:22:16;22.90;68.50
41756;DHT22;27435;48.480;9.258;2023-08-01T15:24:41;23.60;67.50
41756;DHT22;27435;48.480;9.258;2023-08-01T15:27:07;24.00;65.80
41756;DHT22;27435;48.480;9.258;2023-08-01T15:29:33;24.30;65.90
41756;DHT22;27435;48.480;9.258;2023-08-01T15:31:59;24.60;65.50
41756;DHT22;27435;48.480;9.258;2023-08-01T15:34:24;24.00;67.50